createdAt,value
2022-11-02T00:02:07.368Z,12.32
2022-11-02T00:04:52.475Z,12.19
2022-11-02T00:07:37.670Z,12.07
2022-11-02T00:10:24.259Z,12.01
2022-11-02T00:13:09.884Z,11.90
2022-11-02T00:15:55.457Z,11.84
2022-11-02T00:18:42.906Z,11.82
2022-11-02T00:21:28.473Z,11.81
2022-11-02T00:24:14.044Z,11.79
2022-11-02T00:26:59.461Z,11.75
2022-11-02T00:29:44.918Z,11.75
2022-11-02T00:32:30.384Z,11.73
2022-11-02T00:35:15.876Z,11.77
2022-11-02T00:38:01.419Z,11.73
2022-11-02T00:40:46.798Z,11.63
2022-11-02T00:43:32.058Z,11.56
2022-11-02T00:46:17.057Z,11.48
2022-11-02T00:49:02.497Z,11.43
2022-11-02T00:51:47.529Z,11.41
2022-11-02T00:54:34.463Z,11.39
2022-11-02T00:57:20.005Z,11.32
2022-11-02T01:00:07.625Z,11.33
2022-11-02T01:02:52.980Z,11.28
2022-11-02T01:05:38.699Z,11.23
2022-11-02T01:08:23.913Z,11.24
2022-11-02T01:11:19.225Z,11.21
2022-11-02T01:14:04.736Z,11.24
2022-11-02T01:16:50.212Z,11.20
2022-11-02T01:19:37.310Z,11.18
2022-11-02T01:22:22.425Z,11.11
2022-11-02T01:25:08.154Z,11.10
2022-11-02T01:27:53.600Z,11.07
2022-11-02T01:30:39.147Z,11.06
2022-11-02T01:33:25.695Z,11.01
2022-11-02T01:36:14.391Z,11.06
2022-11-02T01:38:59.870Z,11.04
2022-11-02T01:41:51.394Z,11.03
2022-11-02T01:44:36.583Z,11.00
2022-11-02T01:47:32.885Z,10.96
2022-11-02T01:50:23.771Z,10.93
2022-11-02T01:53:09.251Z,10.91
2022-11-02T01:55:54.943Z,10.88
2022-11-02T01:58:41.540Z,10.93
2022-11-02T02:01:27.436Z,10.95
2022-11-02T02:04:13.640Z,10.90
2022-11-02T02:06:59.326Z,10.82
2022-11-02T02:09:48.687Z,10.80
2022-11-02T02:12:39.654Z,10.77
2022-11-02T02:15:32.408Z,10.73
2022-11-02T02:18:28.433Z,10.77
2022-11-02T02:21:41.844Z,10.79
2022-11-02T02:24:42.303Z,10.80
2022-11-02T02:27:42.813Z,10.72
2022-11-02T02:30:32.347Z,10.68
2022-11-02T02:33:35.129Z,10.67
2022-11-02T02:36:27.982Z,10.67
2022-11-02T02:39:20.889Z,10.65
2022-11-02T02:42:21.401Z,10.62
2022-11-02T02:45:20.481Z,10.61
2022-11-02T02:48:27.224Z,10.55
2022-11-02T02:51:19.592Z,10.58
2022-11-02T02:54:10.307Z,10.65
2022-11-02T02:57:00.853Z,10.63
2022-11-02T02:59:50.493Z,10.63
2022-11-02T03:02:40.139Z,10.58
2022-11-02T03:05:32.497Z,10.57
2022-11-02T03:08:18.509Z,10.52
2022-11-02T03:11:15.908Z,10.46
2022-11-02T03:14:26.115Z,10.45
2022-11-02T03:17:19.698Z,10.41
2022-11-02T03:20:21.252Z,10.36
2022-11-02T03:23:20.553Z,10.34
2022-11-02T03:26:17.570Z,10.30
2022-11-02T03:29:10.243Z,10.26
2022-11-02T03:32:03.083Z,10.22
2022-11-02T03:34:55.241Z,10.19
2022-11-02T03:37:49.241Z,10.20
2022-11-02T03:40:47.166Z,10.18
2022-11-02T03:43:37.756Z,10.14
2022-11-02T03:46:24.030Z,10.11
2022-11-02T03:49:15.402Z,10.10
2022-11-02T03:52:07.863Z,10.18
2022-11-02T03:55:02.650Z,10.19
2022-11-02T03:57:51.694Z,10.18
2022-11-02T04:00:54.105Z,10.18
2022-11-02T04:03:43.324Z,10.16
2022-11-02T04:06:28.762Z,10.16
2022-11-02T04:09:14.237Z,10.13
2022-11-02T04:12:18.807Z,10.12
2022-11-02T04:15:04.375Z,10.11
2022-11-02T04:18:08.462Z,10.11
2022-11-02T04:20:53.519Z,10.10
2022-11-02T04:23:57.317Z,10.08
2022-11-02T04:26:42.809Z,10.04
2022-11-02T04:29:28.220Z,10.02
2022-11-02T04:32:13.689Z,10.01
2022-11-02T04:34:58.837Z,9.99
2022-11-02T04:38:03.453Z,9.97
2022-11-02T04:41:13.891Z,9.91
2022-11-02T04:44:00.112Z,9.89
2022-11-02T04:46:45.660Z,9.87
2022-11-02T04:49:39.808Z,9.83
2022-11-02T04:52:29.957Z,9.79
2022-11-02T04:55:16.262Z,9.75
2022-11-02T04:58:01.816Z,9.72
2022-11-02T05:00:47.282Z,9.69
2022-11-02T05:03:32.664Z,9.68
2022-11-02T05:06:20.100Z,9.66
2022-11-02T05:09:06.775Z,9.64
2022-11-02T05:11:52.675Z,9.61
2022-11-02T05:14:38.139Z,9.59
2022-11-02T05:17:23.241Z,9.59
2022-11-02T05:20:09.249Z,9.59
2022-11-02T05:22:54.507Z,9.59
2022-11-02T05:25:42.237Z,9.61
2022-11-02T05:28:28.825Z,9.59
2022-11-02T05:31:15.269Z,9.60
2022-11-02T05:34:01.678Z,9.62
2022-11-02T05:36:50.325Z,9.63
2022-11-02T05:39:37.111Z,9.65
2022-11-02T05:42:23.058Z,9.66
2022-11-02T05:45:08.783Z,9.66
2022-11-02T05:47:54.172Z,9.64
2022-11-02T05:50:39.544Z,9.62
2022-11-02T05:53:25.528Z,9.62
2022-11-02T05:56:11.819Z,9.60
2022-11-02T05:58:57.352Z,9.61
2022-11-02T06:01:42.665Z,9.62
2022-11-02T06:04:27.833Z,9.64
2022-11-02T06:07:13.355Z,9.62
2022-11-02T06:09:58.899Z,9.62
2022-11-02T06:12:44.585Z,9.62
2022-11-02T06:15:31.696Z,9.63
2022-11-02T06:18:16.814Z,9.64
2022-11-02T06:21:02.332Z,9.64
2022-11-02T06:23:48.444Z,9.65
2022-11-02T06:26:33.582Z,9.64
2022-11-02T06:29:19.064Z,9.65
2022-11-02T06:32:04.451Z,9.65
2022-11-02T06:34:49.721Z,9.65
2022-11-02T06:37:35.377Z,9.64
2022-11-02T06:40:22.777Z,9.64
2022-11-02T06:43:16.399Z,9.66
2022-11-02T06:46:02.668Z,9.70
2022-11-02T06:48:48.343Z,9.72
2022-11-02T06:51:33.603Z,9.74
2022-11-02T06:54:19.225Z,9.74
2022-11-02T06:57:04.344Z,9.76
2022-11-02T06:59:53.814Z,9.79
2022-11-02T07:02:40.327Z,9.83
2022-11-02T07:05:25.403Z,9.87
2022-11-02T07:08:10.765Z,9.96
2022-11-02T07:10:56.706Z,10.04
2022-11-02T07:13:42.832Z,10.07
2022-11-02T07:16:30.422Z,10.09
2022-11-02T07:19:15.443Z,10.10
2022-11-02T07:22:00.924Z,10.17
2022-11-02T07:24:46.454Z,10.24
2022-11-02T07:27:31.809Z,10.32
2022-11-02T07:30:17.317Z,10.43
2022-11-02T07:33:03.292Z,10.52
2022-11-02T07:35:48.685Z,10.60
2022-11-02T07:38:34.042Z,10.72
2022-11-02T07:41:19.094Z,10.82
2022-11-02T07:44:04.901Z,10.98
2022-11-02T07:47:13.520Z,11.14
2022-11-02T07:49:59.550Z,11.32
2022-11-02T07:52:45.909Z,11.51
2022-11-02T07:55:32.169Z,11.68
2022-11-02T07:58:17.660Z,11.82
2022-11-02T08:01:03.754Z,11.95
2022-11-02T08:03:49.781Z,12.08
2022-11-02T08:06:35.753Z,12.16
2022-11-02T08:09:22.917Z,12.12
2022-11-02T08:12:08.179Z,12.80
2022-11-02T08:14:53.661Z,12.76
2022-11-02T08:17:38.875Z,12.77
2022-11-02T08:20:24.150Z,12.80
2022-11-02T08:23:10.840Z,12.96
2022-11-02T08:25:59.194Z,13.03
2022-11-02T08:28:44.668Z,12.90
2022-11-02T08:31:29.906Z,12.79
2022-11-02T08:34:15.071Z,12.66
2022-11-02T08:37:00.612Z,12.51
2022-11-02T08:39:46.180Z,12.47
2022-11-02T08:42:31.515Z,12.50
2022-11-02T08:45:17.341Z,12.51
2022-11-02T08:48:03.147Z,13.11
2022-11-02T08:50:48.880Z,12.93
2022-11-02T08:53:34.668Z,12.66
2022-11-02T08:56:19.920Z,12.49
2022-11-02T08:59:05.260Z,12.57
2022-11-02T09:01:50.402Z,12.53
2022-11-02T09:04:35.764Z,12.53
2022-11-02T09:07:21.265Z,12.69
2022-11-02T09:10:07.580Z,12.74
2022-11-02T09:12:52.971Z,12.92
2022-11-02T09:15:38.567Z,12.86
2022-11-02T09:18:24.163Z,13.03
2022-11-02T09:21:09.601Z,13.17
2022-11-02T09:23:54.790Z,13.31
2022-11-02T09:26:40.392Z,13.33
2022-11-02T09:29:25.842Z,13.40
2022-11-02T09:32:11.427Z,13.52
2022-11-02T09:34:56.960Z,13.60
2022-11-02T09:37:49.903Z,13.66
2022-11-02T09:40:50.000Z,13.70
2022-11-02T09:43:44.667Z,13.78
2022-11-02T09:46:42.727Z,13.92
2022-11-02T09:49:30.323Z,13.98
2022-11-02T09:52:38.300Z,13.97
2022-11-02T09:55:28.716Z,14.03
2022-11-02T09:58:19.921Z,14.07
2022-11-02T10:01:21.094Z,14.12
2022-11-02T10:04:09.492Z,14.31
2022-11-02T10:07:06.814Z,14.50
2022-11-02T10:09:58.311Z,14.58
2022-11-02T10:12:46.479Z,14.71
2022-11-02T10:20:43.103Z,15.02
2022-11-02T10:23:44.562Z,15.14
2022-11-02T10:26:34.472Z,15.18
2022-11-02T10:29:28.949Z,15.35
2022-11-02T10:32:16.076Z,15.37
2022-11-02T10:35:25.318Z,15.34
2022-11-02T10:38:20.004Z,15.28
2022-11-02T10:41:32.549Z,15.23
2022-11-02T10:44:30.161Z,15.29
2022-11-02T10:47:18.812Z,15.38
2022-11-02T10:50:23.940Z,15.57
2022-11-02T10:53:39.442Z,15.67
2022-11-02T10:56:19.815Z,15.68
2022-11-02T10:59:20.228Z,15.62
2022-11-02T11:02:12.193Z,15.68
2022-11-02T11:05:11.723Z,15.68
2022-11-02T11:07:57.378Z,15.78
2022-11-02T11:10:44.118Z,15.80
2022-11-02T11:16:40.280Z,15.79
2022-11-02T11:19:51.016Z,15.93
2022-11-02T11:22:39.823Z,15.90
2022-11-02T11:25:27.925Z,15.77
2022-11-02T11:28:34.737Z,15.52
2022-11-02T11:31:20.211Z,15.32
2022-11-02T11:34:05.458Z,15.19
2022-11-02T11:36:50.912Z,15.17
2022-11-02T11:39:38.839Z,15.12
2022-11-02T11:42:26.942Z,15.12
2022-11-02T11:45:23.869Z,15.18
2022-11-02T11:51:37.455Z,15.13
2022-11-02T11:54:29.190Z,15.13
2022-11-02T11:57:32.496Z,15.05
2022-11-02T12:00:28.930Z,15.06
2022-11-02T12:03:14.552Z,15.09
2022-11-02T12:06:30.263Z,15.07
2022-11-02T12:09:38.900Z,15.02
2022-11-02T12:12:37.524Z,15.38
2022-11-02T12:15:37.926Z,15.80
2022-11-02T12:18:38.336Z,16.07
2022-11-02T12:21:50.131Z,15.93
2022-11-02T12:25:06.707Z,15.82
2022-11-02T12:27:57.996Z,15.88
2022-11-02T12:30:49.271Z,15.80
2022-11-02T12:33:34.749Z,15.91
2022-11-02T12:36:32.283Z,16.17
2022-11-02T12:39:46.100Z,16.30
2022-11-02T12:42:45.151Z,16.67
2022-11-02T12:45:52.143Z,16.69
2022-11-02T12:49:11.581Z,16.33
2022-11-02T12:52:24.494Z,16.28
2022-11-02T12:55:19.525Z,16.28
2022-11-02T12:58:08.049Z,16.03
2022-11-02T13:01:09.430Z,15.98
2022-11-02T13:04:01.955Z,15.88
2022-11-02T13:06:51.589Z,15.99
2022-11-02T13:09:39.105Z,16.02
2022-11-02T13:12:26.529Z,15.90
2022-11-02T13:15:17.397Z,15.78
2022-11-02T13:18:27.164Z,15.77
2022-11-02T13:21:15.581Z,15.76
2022-11-02T13:24:00.879Z,15.73
2022-11-02T13:26:57.207Z,15.73
2022-11-02T13:29:50.813Z,15.65
2022-11-02T13:32:41.844Z,15.64
2022-11-02T13:35:33.193Z,15.65
2022-11-02T13:38:40.786Z,15.49
2022-11-02T13:41:35.157Z,15.44
2022-11-02T13:44:39.456Z,15.54
2022-11-02T13:47:36.958Z,15.72
2022-11-02T13:50:24.683Z,15.81
2022-11-02T13:53:18.786Z,15.86
2022-11-02T13:56:28.389Z,15.84
2022-11-02T13:59:23.525Z,15.82
2022-11-02T14:02:16.947Z,15.83
2022-11-02T14:05:02.809Z,15.77
2022-11-02T14:07:48.087Z,15.61
2022-11-02T14:10:37.411Z,15.51
2022-11-02T14:13:51.527Z,15.44
2022-11-02T14:16:43.196Z,15.41
2022-11-02T14:19:48.881Z,15.35
2022-11-02T14:22:34.214Z,15.23
2022-11-02T14:25:19.846Z,15.09
2022-11-02T14:28:31.769Z,14.97
2022-11-02T14:31:16.835Z,14.93
2022-11-02T14:34:23.335Z,14.89
2022-11-02T14:37:23.208Z,14.89
2022-11-02T14:40:47.551Z,14.86
2022-11-02T14:44:04.028Z,14.86
2022-11-02T14:46:59.709Z,14.81
2022-11-02T14:49:56.324Z,14.75
2022-11-02T14:52:53.789Z,14.68
2022-11-02T14:55:39.604Z,14.60
2022-11-02T14:58:40.474Z,14.56
2022-11-02T15:01:25.759Z,14.50
2022-11-02T15:04:11.059Z,14.42
2022-11-02T15:06:58.999Z,14.38
2022-11-02T15:09:57.165Z,14.29
2022-11-02T15:12:45.381Z,14.24
2022-11-02T15:15:32.266Z,14.24
2022-11-02T15:18:31.653Z,14.17
2022-11-02T15:21:19.942Z,14.11
2022-11-02T15:24:19.935Z,14.03
2022-11-02T15:27:06.906Z,14.16
2022-11-02T15:29:53.088Z,14.12
2022-11-02T15:32:44.541Z,14.06
2022-11-02T15:35:38.365Z,13.98
2022-11-02T15:38:33.809Z,13.89
2022-11-02T15:41:56.180Z,13.79
2022-11-02T15:44:44.483Z,13.71
2022-11-02T15:47:44.931Z,13.73
2022-11-02T15:50:41.353Z,13.63
2022-11-02T15:54:05.932Z,13.55
2022-11-02T15:57:09.534Z,13.53
2022-11-02T16:00:18.545Z,13.46
2022-11-02T16:03:08.980Z,13.40
2022-11-02T16:05:54.171Z,13.36
2022-11-02T16:08:39.525Z,13.32
2022-11-02T16:11:24.709Z,13.27
2022-11-02T16:14:17.749Z,13.23
2022-11-02T16:17:02.918Z,13.20
2022-11-02T16:19:49.256Z,13.17
2022-11-02T16:22:34.617Z,13.15
2022-11-02T16:25:46.942Z,13.12
2022-11-02T16:28:34.674Z,13.07
2022-11-02T16:31:31.060Z,13.04
2022-11-02T16:34:26.618Z,12.97
2022-11-02T16:37:14.686Z,12.95
2022-11-02T16:40:00.198Z,12.89
2022-11-02T16:42:47.875Z,12.87
2022-11-02T16:45:43.169Z,12.83
2022-11-02T16:48:32.819Z,12.80
2022-11-02T16:51:18.852Z,12.78
2022-11-02T16:54:33.361Z,12.73
2022-11-02T16:57:23.712Z,12.71
2022-11-02T17:00:19.018Z,12.75
2022-11-02T17:03:10.412Z,12.70
2022-11-02T17:05:57.800Z,12.64
2022-11-02T17:08:44.694Z,12.62
2022-11-02T17:11:32.073Z,12.61
2022-11-02T17:14:20.793Z,12.56
2022-11-02T17:17:27.034Z,12.50
2022-11-02T17:20:15.058Z,12.49
2022-11-02T17:23:03.268Z,12.47
2022-11-02T17:25:48.887Z,12.51
2022-11-02T17:28:34.058Z,12.47
2022-11-02T17:31:25.761Z,12.46
2022-11-02T17:34:19.182Z,12.42
2022-11-02T17:37:06.434Z,12.40
2022-11-02T17:39:52.804Z,12.37
2022-11-02T17:42:57.438Z,12.37
2022-11-02T17:45:42.542Z,12.31
2022-11-02T17:48:31.086Z,12.27
2022-11-02T17:51:19.954Z,12.21
2022-11-02T17:54:05.333Z,12.19
2022-11-02T17:56:50.445Z,12.17
2022-11-02T17:59:35.891Z,12.14
2022-11-02T18:02:21.511Z,12.11
2022-11-02T18:05:19.939Z,12.10
2022-11-02T18:08:06.484Z,12.08
2022-11-02T18:10:52.543Z,12.02
2022-11-02T18:13:37.836Z,12.01
2022-11-02T18:16:23.320Z,11.97
2022-11-02T18:19:08.618Z,11.94
2022-11-02T18:21:53.798Z,11.91
2022-11-02T18:24:39.014Z,11.87
2022-11-02T18:27:27.754Z,11.86
2022-11-02T18:30:16.653Z,11.82
2022-11-02T18:33:02.761Z,11.81
2022-11-02T18:35:48.180Z,11.81
2022-11-02T18:38:33.408Z,11.81
2022-11-02T18:41:27.734Z,11.80
2022-11-02T18:44:15.617Z,11.76
2022-11-02T18:47:00.974Z,11.74
2022-11-02T18:49:46.089Z,11.70
2022-11-02T18:52:33.736Z,11.67
2022-11-02T18:55:18.968Z,11.65
2022-11-02T18:58:04.579Z,11.65
2022-11-02T19:00:49.884Z,11.62
2022-11-02T19:03:35.959Z,11.60
2022-11-02T19:06:40.082Z,11.58
2022-11-02T19:09:26.733Z,11.57
2022-11-02T19:12:16.530Z,11.59
2022-11-02T19:15:02.112Z,11.60
2022-11-02T19:17:48.028Z,11.54
2022-11-02T19:20:33.301Z,11.53
2022-11-02T19:23:18.588Z,11.50
2022-11-02T19:26:03.988Z,11.50
2022-11-02T19:28:49.214Z,11.48
2022-11-02T19:31:35.474Z,11.47
2022-11-02T19:34:20.717Z,11.45
2022-11-02T19:37:07.598Z,11.41
2022-11-02T19:39:53.075Z,11.37
2022-11-02T19:42:39.684Z,11.36
2022-11-02T19:45:24.753Z,11.35
2022-11-02T19:48:10.284Z,11.33
2022-11-02T19:50:55.577Z,11.33
2022-11-02T19:53:43.569Z,11.33
2022-11-02T19:56:31.316Z,11.32
2022-11-02T19:59:16.763Z,11.29
2022-11-02T20:02:02.421Z,11.26
2022-11-02T20:04:48.374Z,11.20
2022-11-02T20:07:33.779Z,11.20
2022-11-02T20:10:19.139Z,11.20
2022-11-02T20:13:04.460Z,11.16
2022-11-02T20:15:49.656Z,11.13
2022-11-02T20:18:36.243Z,11.11
2022-11-02T20:21:32.379Z,11.06
2022-11-02T20:24:19.535Z,11.05
2022-11-02T20:27:06.663Z,11.03
2022-11-02T20:29:51.870Z,11.02
2022-11-02T20:32:37.106Z,11.02
2022-11-02T20:35:25.496Z,11.01
2022-11-02T20:38:10.952Z,10.98
2022-11-02T20:41:07.852Z,10.96
2022-11-02T20:43:55.589Z,10.93
2022-11-02T20:46:42.480Z,10.91
2022-11-02T20:52:33.469Z,10.81
2022-11-02T20:55:18.859Z,10.78
2022-11-02T20:58:04.218Z,10.73
2022-11-02T21:00:49.708Z,10.72
2022-11-02T21:03:35.205Z,10.69
2022-11-02T21:06:20.285Z,10.68
2022-11-02T21:09:09.106Z,10.65
2022-11-02T21:12:15.702Z,10.62
2022-11-02T21:15:00.877Z,10.59
2022-11-02T21:17:46.002Z,10.60
2022-11-02T21:20:35.098Z,10.55
2022-11-02T21:23:20.478Z,10.50
2022-11-02T21:26:08.649Z,10.49
2022-11-02T21:28:53.688Z,10.46
2022-11-02T21:31:39.283Z,10.39
2022-11-02T21:34:24.418Z,10.37
2022-11-02T21:37:09.518Z,10.37
2022-11-02T21:39:55.116Z,10.32
2022-11-02T21:42:40.766Z,10.30
2022-11-02T21:45:26.432Z,10.27
2022-11-02T21:48:11.953Z,10.27
2022-11-02T21:51:01.918Z,10.25
2022-11-02T21:53:48.325Z,10.23
2022-11-02T21:56:35.801Z,10.20
2022-11-02T21:59:21.196Z,10.20
2022-11-02T22:02:06.883Z,10.19
2022-11-02T22:04:54.878Z,10.18
2022-11-02T22:08:00.152Z,10.17
2022-11-02T22:10:45.224Z,10.10
2022-11-02T22:13:34.167Z,10.08
2022-11-02T22:16:24.974Z,10.06
2022-11-02T22:19:15.202Z,10.05
2022-11-02T22:22:00.645Z,10.05
2022-11-02T22:24:45.583Z,10.02
2022-11-02T22:27:31.166Z,10.01
2022-11-02T22:30:16.605Z,9.96
2022-11-02T22:33:01.943Z,9.93
2022-11-02T22:35:49.675Z,9.94
2022-11-02T22:38:54.278Z,9.92
2022-11-02T22:41:46.853Z,9.87
2022-11-02T22:44:32.125Z,9.84
2022-11-02T22:47:17.565Z,9.81
2022-11-02T22:50:03.032Z,9.79
2022-11-02T22:52:48.049Z,9.78
2022-11-02T22:55:33.526Z,9.78
2022-11-02T22:58:19.159Z,9.76
2022-11-02T23:01:05.190Z,9.72
2022-11-02T23:03:50.832Z,9.72
2022-11-02T23:06:36.117Z,9.70
2022-11-02T23:09:21.596Z,9.66
2022-11-02T23:12:07.137Z,9.64
2022-11-02T23:14:52.113Z,9.61
2022-11-02T23:17:37.789Z,9.56
2022-11-02T23:20:23.192Z,9.57
2022-11-02T23:23:27.213Z,9.58
2022-11-02T23:26:12.476Z,9.57
2022-11-02T23:29:16.261Z,9.51
2022-11-02T23:32:20.152Z,9.44
2022-11-02T23:35:24.551Z,9.42
2022-11-02T23:38:09.688Z,9.39
2022-11-02T23:40:55.064Z,9.37
2022-11-02T23:43:40.381Z,9.36
2022-11-02T23:46:25.653Z,9.34
2022-11-02T23:49:12.250Z,9.34
2022-11-02T23:52:16.421Z,9.31
2022-11-02T23:55:20.256Z,9.26
2022-11-02T23:58:05.480Z,9.18
